createdAt,value
2019-02-25T00:00:22.957Z,41.70
2019-02-25T00:02:59.270Z,42.00
2019-02-25T00:05:27.398Z,42.20
2019-02-25T00:08:01.019Z,42.60
2019-02-25T00:10:37.079Z,42.90
2019-02-25T00:13:09.382Z,42.90
2019-02-25T00:15:49.882Z,43.00
2019-02-25T00:18:22.939Z,42.90
2019-02-25T00:20:54.258Z,43.20
2019-02-25T00:23:28.932Z,43.30
2019-02-25T00:25:59.432Z,43.10
2019-02-25T00:28:29.718Z,43.10
2019-02-25T00:31:00.117Z,43.10
2019-02-25T00:33:30.421Z,43.40
2019-02-25T00:36:00.531Z,43.70
2019-02-25T00:38:31.017Z,43.90
2019-02-25T00:41:01.152Z,44.10
2019-02-25T00:43:33.926Z,44.30
2019-02-25T00:46:05.517Z,44.20
2019-02-25T00:48:37.844Z,44.30
2019-02-25T00:51:07.657Z,44.50
2019-02-25T00:53:39.969Z,44.50
2019-02-25T00:56:14.611Z,44.30
2019-02-25T00:58:46.029Z,44.30
2019-02-25T01:01:17.159Z,44.30
2019-02-25T01:03:47.088Z,44.20
2019-02-25T01:06:16.878Z,44.30
2019-02-25T01:08:46.888Z,44.30
2019-02-25T01:11:17.160Z,44.20
2019-02-25T01:13:46.895Z,44.40
2019-02-25T01:16:24.638Z,44.40
2019-02-25T01:18:54.986Z,44.60
2019-02-25T01:21:35.327Z,44.70
2019-02-25T01:24:06.871Z,44.70
2019-02-25T01:26:40.136Z,44.50
2019-02-25T01:29:12.364Z,44.40
2019-02-25T01:31:45.545Z,44.60
2019-02-25T01:34:15.800Z,44.30
2019-02-25T01:36:53.229Z,44.00
2019-02-25T01:39:24.286Z,44.10
2019-02-25T01:41:54.721Z,44.40
2019-02-25T01:44:28.633Z,44.30
2019-02-25T01:47:00.609Z,44.40
2019-02-25T01:49:30.723Z,44.50
2019-02-25T01:52:04.528Z,44.60
2019-02-25T01:54:43.735Z,44.60
2019-02-25T01:57:23.016Z,44.60
2019-02-25T01:59:54.099Z,44.20
2019-02-25T02:02:27.501Z,44.20
2019-02-25T02:05:01.090Z,44.00
2019-02-25T02:07:31.593Z,43.80
2019-02-25T02:10:02.307Z,43.70
2019-02-25T02:12:40.927Z,43.80
2019-02-25T02:15:16.901Z,44.10
2019-02-25T02:17:50.191Z,44.00
2019-02-25T02:20:20.361Z,44.40
2019-02-25T02:22:56.876Z,44.60
2019-02-25T02:25:27.003Z,44.80
2019-02-25T02:28:00.701Z,44.60
2019-02-25T02:30:31.135Z,44.50
2019-02-25T02:33:01.438Z,44.60
2019-02-25T02:35:34.449Z,44.60
2019-02-25T02:38:05.404Z,44.50
2019-02-25T02:40:35.278Z,44.50
2019-02-25T02:43:06.418Z,44.40
2019-02-25T02:45:42.606Z,44.50
2019-02-25T02:48:16.097Z,44.50
2019-02-25T02:50:46.161Z,44.60
2019-02-25T02:53:15.865Z,44.60
2019-02-25T02:55:48.133Z,44.60
2019-02-25T02:58:17.981Z,44.00
2019-02-25T03:00:47.951Z,43.80
2019-02-25T03:03:17.855Z,43.40
2019-02-25T03:05:50.526Z,43.60
2019-02-25T03:08:20.532Z,43.90
2019-02-25T03:10:50.335Z,44.00
2019-02-25T03:13:20.082Z,44.30
2019-02-25T03:15:52.599Z,44.80
2019-02-25T03:18:22.414Z,45.40
2019-02-25T03:20:52.168Z,45.60
2019-02-25T03:23:21.922Z,45.90
2019-02-25T03:25:54.360Z,46.20
2019-02-25T03:28:24.162Z,46.30
2019-02-25T03:30:55.341Z,46.70
2019-02-25T03:33:25.125Z,47.20
2019-02-25T03:35:54.882Z,47.50
2019-02-25T03:38:24.616Z,47.90
2019-02-25T03:40:55.480Z,48.10
2019-02-25T03:43:28.005Z,48.10
2019-02-25T03:46:04.772Z,48.10
2019-02-25T03:48:34.582Z,47.90
2019-02-25T03:51:08.013Z,48.40
2019-02-25T03:53:45.720Z,48.10
2019-02-25T03:56:18.411Z,48.30
2019-02-25T03:58:49.419Z,48.50
2019-02-25T04:01:21.310Z,49.00
2019-02-25T04:03:54.386Z,49.50
2019-02-25T04:06:24.369Z,49.80
2019-02-25T04:08:54.785Z,50.20
2019-02-25T04:11:24.611Z,50.70
2019-02-25T04:13:54.383Z,51.00
2019-02-25T04:16:24.332Z,51.60
2019-02-25T04:18:54.150Z,52.10
2019-02-25T04:21:23.914Z,52.50
2019-02-25T04:23:53.665Z,52.80
2019-02-25T04:26:23.877Z,53.30
2019-02-25T04:28:53.537Z,53.90
2019-02-25T04:31:23.708Z,54.90
2019-02-25T04:33:53.512Z,55.90
2019-02-25T04:36:23.212Z,56.20
2019-02-25T04:38:52.905Z,56.30
2019-02-25T04:41:22.676Z,56.10
2019-02-25T04:43:52.412Z,57.20
2019-02-25T04:46:25.300Z,57.90
2019-02-25T04:48:55.103Z,58.50
2019-02-25T04:51:25.170Z,58.80
2019-02-25T04:53:55.059Z,59.40
2019-02-25T04:56:25.618Z,60.60
2019-02-25T04:58:56.394Z,61.60
2019-02-25T05:01:26.185Z,61.60
2019-02-25T05:03:59.514Z,60.60
2019-02-25T05:06:44.644Z,58.40
2019-02-25T05:09:14.384Z,57.80
2019-02-25T05:11:44.186Z,58.20
2019-02-25T05:14:14.384Z,59.30
2019-02-25T05:16:46.949Z,59.00
2019-02-25T05:19:18.996Z,59.30
2019-02-25T05:21:50.189Z,57.50
2019-02-25T05:24:21.629Z,56.70
2019-02-25T05:26:52.032Z,55.90
2019-02-25T05:29:23.972Z,56.90
2019-02-25T05:31:54.066Z,57.50
2019-02-25T05:34:23.873Z,57.30
2019-02-25T05:36:53.647Z,56.50
2019-02-25T05:39:24.672Z,56.30
2019-02-25T05:41:54.605Z,56.20
2019-02-25T05:44:24.841Z,56.20
2019-02-25T05:46:54.684Z,56.40
2019-02-25T05:49:27.569Z,56.10
2019-02-25T05:51:57.315Z,56.30
2019-02-25T05:54:27.169Z,56.60
2019-02-25T05:56:57.097Z,56.70
2019-02-25T05:59:27.199Z,55.90
2019-02-25T06:02:02.054Z,56.10
2019-02-25T06:04:32.429Z,56.40
2019-02-25T06:07:02.142Z,57.20
2019-02-25T06:09:31.896Z,62.50
2019-02-25T06:12:01.760Z,67.60
2019-02-25T06:14:31.488Z,72.70
2019-02-25T06:17:01.337Z,71.60
2019-02-25T06:19:32.441Z,68.90
2019-02-25T06:22:02.646Z,69.60
2019-02-25T06:24:32.662Z,71.40
2019-02-25T06:27:02.557Z,72.00
2019-02-25T06:29:32.667Z,71.50
2019-02-25T06:32:03.220Z,70.90
2019-02-25T06:34:33.423Z,66.90
2019-02-25T06:37:03.365Z,63.90
2019-02-25T06:39:33.414Z,66.20
2019-02-25T06:42:03.230Z,67.60
2019-02-25T06:44:34.816Z,69.10
2019-02-25T06:47:04.682Z,72.00
2019-02-25T06:49:34.757Z,73.00
2019-02-25T06:52:04.942Z,73.90
2019-02-25T06:54:46.194Z,73.00
2019-02-25T06:57:16.409Z,73.50
2019-02-25T06:59:52.340Z,74.60
2019-02-25T07:02:22.163Z,74.20
2019-02-25T07:05:08.553Z,75.50
2019-02-25T07:07:56.647Z,74.60
2019-02-25T07:10:48.609Z,75.30
2019-02-25T07:13:35.966Z,78.10
2019-02-25T07:16:28.120Z,69.40
2019-02-25T07:19:24.089Z,68.00
2019-02-25T07:22:12.821Z,65.30
2019-02-25T07:25:05.112Z,64.80
2019-02-25T07:27:59.791Z,66.10
2019-02-25T07:31:06.579Z,65.50
2019-02-25T07:33:56.826Z,66.00
2019-02-25T07:36:44.683Z,66.70
2019-02-25T07:39:31.229Z,64.90
2019-02-25T07:42:26.180Z,64.40
2019-02-25T07:45:14.740Z,63.20
2019-02-25T07:48:09.765Z,61.70
2019-02-25T07:51:03.584Z,61.70
2019-02-25T07:53:41.665Z,60.10
2019-02-25T07:56:32.375Z,58.30
2019-02-25T07:59:21.589Z,56.70
2019-02-25T08:02:10.187Z,55.80
2019-02-25T08:04:59.334Z,55.10
2019-02-25T08:07:53.570Z,54.60
2019-02-25T08:10:45.842Z,54.80
2019-02-25T08:13:27.651Z,54.80
2019-02-25T08:16:21.976Z,54.20
2019-02-25T08:19:13.116Z,53.80
2019-02-25T08:22:16.103Z,52.30
2019-02-25T08:25:05.112Z,51.20
2019-02-25T08:27:54.106Z,50.50
2019-02-25T08:30:43.046Z,51.10
2019-02-25T08:33:50.156Z,51.80
2019-02-25T08:37:02.410Z,51.40
2019-02-25T08:39:37.707Z,51.30
2019-02-25T08:42:19.916Z,51.20
2019-02-25T08:45:14.965Z,51.40
2019-02-25T08:47:58.396Z,50.80
2019-02-25T08:50:25.797Z,50.20
2019-02-25T08:52:58.434Z,49.00
2019-02-25T08:55:32.321Z,48.40
2019-02-25T08:58:02.390Z,48.20
2019-02-25T09:00:35.843Z,47.40
2019-02-25T09:03:06.553Z,46.70
2019-02-25T09:05:36.246Z,45.70
2019-02-25T09:08:06.264Z,45.30
2019-02-25T09:10:36.602Z,45.50
2019-02-25T09:13:06.762Z,45.70
2019-02-25T09:15:37.013Z,43.90
2019-02-25T09:18:05.313Z,44.40
2019-02-25T09:20:35.825Z,43.20
2019-02-25T09:23:13.338Z,42.70
2019-02-25T09:25:56.365Z,43.00
2019-02-25T09:28:27.067Z,42.60
2019-02-25T09:31:01.012Z,42.70
2019-02-25T09:33:30.911Z,42.50
2019-02-25T09:36:05.293Z,41.60
2019-02-25T09:38:38.313Z,41.20
2019-02-25T09:41:08.246Z,40.10
2019-02-25T09:43:38.451Z,39.70
2019-02-25T09:46:09.169Z,38.40
2019-02-25T09:48:39.750Z,37.80
2019-02-25T09:51:11.255Z,37.20
2019-02-25T09:53:43.929Z,37.10
2019-02-25T09:56:15.649Z,35.80
2019-02-25T09:58:46.204Z,35.50
2019-02-25T10:01:17.006Z,35.60
2019-02-25T10:03:56.799Z,35.90
2019-02-25T10:06:29.405Z,36.00
2019-02-25T10:09:07.877Z,35.90
2019-02-25T10:11:37.976Z,35.80
2019-02-25T10:14:08.706Z,35.60
2019-02-25T10:16:39.142Z,35.10
2019-02-25T10:19:09.640Z,35.30
2019-02-25T10:21:40.922Z,35.40
2019-02-25T10:24:11.932Z,35.80
2019-02-25T10:26:42.186Z,35.70
2019-02-25T10:29:15.589Z,35.80
2019-02-25T10:31:50.278Z,34.60
2019-02-25T10:34:26.411Z,34.70
2019-02-25T10:37:12.975Z,34.40
2019-02-25T10:39:49.468Z,33.90
2019-02-25T10:42:21.186Z,32.90
2019-02-25T10:44:52.454Z,31.10
2019-02-25T10:47:24.252Z,29.10
2019-02-25T10:49:56.621Z,27.90
2019-02-25T10:52:31.870Z,26.60
2019-02-25T10:55:08.250Z,25.90
2019-02-25T10:57:48.259Z,25.80
2019-02-25T11:00:23.062Z,25.80
2019-02-25T11:03:00.812Z,26.50
2019-02-25T11:05:33.682Z,26.00
2019-02-25T11:08:12.116Z,25.40
2019-02-25T11:11:03.228Z,25.20
2019-02-25T11:13:36.518Z,24.80
2019-02-25T11:16:20.387Z,24.50
2019-02-25T11:18:52.784Z,24.60
2019-02-25T11:21:27.973Z,24.10
2019-02-25T11:24:18.612Z,24.00
2019-02-25T11:27:07.329Z,24.10
2019-02-25T11:29:44.130Z,24.10
2019-02-25T11:32:27.962Z,24.10
2019-02-25T11:35:06.203Z,24.30
2019-02-25T11:38:01.703Z,24.50
2019-02-25T11:40:41.710Z,24.50
2019-02-25T11:43:16.622Z,24.60
2019-02-25T11:45:57.190Z,24.50
2019-02-25T11:48:40.960Z,24.60
2019-02-25T11:51:21.388Z,23.90
2019-02-25T11:53:54.665Z,24.20
2019-02-25T11:56:25.660Z,24.70
2019-02-25T11:59:02.127Z,24.60
2019-02-25T12:01:49.578Z,24.80
2019-02-25T12:04:53.392Z,25.70
2019-02-25T12:07:32.444Z,24.70
2019-02-25T12:10:12.086Z,24.10
2019-02-25T12:12:43.693Z,24.10
2019-02-25T12:15:24.632Z,23.80
2019-02-25T12:17:57.246Z,23.60
2019-02-25T12:20:47.095Z,23.50
2019-02-25T12:23:26.846Z,23.70
2019-02-25T12:26:06.504Z,24.10
2019-02-25T12:28:52.566Z,24.20
2019-02-25T12:31:23.608Z,24.20
2019-02-25T12:33:59.928Z,24.40
2019-02-25T12:36:36.367Z,24.30
2019-02-25T12:39:10.459Z,24.70
2019-02-25T12:42:09.428Z,25.20
2019-02-25T12:44:45.869Z,25.50
2019-02-25T12:47:18.606Z,25.20
2019-02-25T12:49:52.805Z,25.10
2019-02-25T12:52:37.791Z,24.90
2019-02-25T12:55:10.754Z,24.80
2019-02-25T12:57:46.225Z,24.70
2019-02-25T13:00:29.082Z,24.90
2019-02-25T13:03:00.762Z,25.00
2019-02-25T13:05:32.491Z,25.10
2019-02-25T13:08:04.806Z,24.60
2019-02-25T13:10:38.267Z,24.50
2019-02-25T13:13:11.088Z,23.90
2019-02-25T13:15:54.794Z,23.80
2019-02-25T13:18:33.334Z,23.80
2019-02-25T13:21:09.143Z,23.80
2019-02-25T13:23:42.097Z,23.80
2019-02-25T13:26:14.151Z,23.60
2019-02-25T13:28:53.367Z,23.90
2019-02-25T13:31:31.679Z,23.80
2019-02-25T13:34:04.445Z,23.90
2019-02-25T13:36:35.844Z,23.70
2019-02-25T13:39:18.147Z,23.70
2019-02-25T13:41:53.083Z,23.90
2019-02-25T13:44:24.235Z,24.00
2019-02-25T13:46:55.492Z,24.10
2019-02-25T13:49:26.264Z,23.60
2019-02-25T13:52:02.355Z,23.30
2019-02-25T13:54:32.722Z,23.10
2019-02-25T13:57:09.909Z,23.20
2019-02-25T13:59:48.953Z,22.30
2019-02-25T14:02:24.722Z,21.90
2019-02-25T14:05:02.118Z,21.50
2019-02-25T14:07:40.880Z,21.20
2019-02-25T14:10:18.643Z,20.20
2019-02-25T14:12:51.360Z,20.20
2019-02-25T14:15:43.177Z,20.40
2019-02-25T14:18:14.014Z,21.50
2019-02-25T14:20:49.213Z,22.20
2019-02-25T14:23:23.158Z,22.40
2019-02-25T14:25:53.758Z,23.00
2019-02-25T14:28:25.077Z,23.30
2019-02-25T14:30:57.947Z,23.00
2019-02-25T14:33:51.940Z,23.10
2019-02-25T14:36:20.534Z,24.00
2019-02-25T14:38:54.130Z,24.50
2019-02-25T14:41:26.930Z,24.40
2019-02-25T14:43:58.748Z,25.00
2019-02-25T14:46:29.094Z,25.10
2019-02-25T14:49:05.294Z,26.00
2019-02-25T14:51:38.444Z,27.20
2019-02-25T14:54:16.653Z,28.30
2019-02-25T14:57:05.017Z,29.00
2019-02-25T14:59:28.048Z,29.50
2019-02-25T15:02:01.489Z,30.00
2019-02-25T15:04:35.080Z,30.20
2019-02-25T15:07:06.911Z,30.60
2019-02-25T15:09:38.801Z,30.70
2019-02-25T15:12:11.684Z,31.20
2019-02-25T15:14:50.056Z,31.90
2019-02-25T15:17:20.283Z,31.50
2019-02-25T15:19:50.753Z,31.70
2019-02-25T15:22:24.145Z,31.60
2019-02-25T15:24:57.093Z,31.60
2019-02-25T15:27:26.722Z,31.70
2019-02-25T15:29:58.492Z,32.00
2019-02-25T15:32:31.432Z,31.90
2019-02-25T15:35:08.699Z,32.20
2019-02-25T15:37:44.587Z,32.30
2019-02-25T15:40:20.344Z,32.30
2019-02-25T15:43:15.144Z,32.40
2019-02-25T15:46:04.574Z,32.50
2019-02-25T15:48:43.529Z,32.40
2019-02-25T15:51:32.616Z,32.30
2019-02-25T15:54:10.124Z,32.50
2019-02-25T15:56:41.228Z,32.50
2019-02-25T15:59:18.559Z,32.50
2019-02-25T16:01:55.368Z,32.10
2019-02-25T16:04:33.990Z,32.00
2019-02-25T16:07:10.557Z,32.20
2019-02-25T16:09:57.136Z,33.10
2019-02-25T16:12:42.116Z,33.40
2019-02-25T16:15:30.622Z,32.20
2019-02-25T16:18:06.592Z,32.30
2019-02-25T16:20:59.798Z,33.00
2019-02-25T16:23:40.895Z,33.20
2019-02-25T16:26:13.397Z,33.10
2019-02-25T16:28:45.094Z,32.70
2019-02-25T16:32:01.334Z,33.30
2019-02-25T16:34:56.467Z,33.80
2019-02-25T16:37:38.086Z,33.60
2019-02-25T16:40:40.052Z,33.30
2019-02-25T16:43:26.697Z,33.80
2019-02-25T16:45:59.472Z,34.70
2019-02-25T16:48:41.110Z,34.40
2019-02-25T16:51:14.514Z,34.60
2019-02-25T16:53:50.479Z,35.30
2019-02-25T16:56:19.153Z,35.40
2019-02-25T16:58:52.629Z,35.50
2019-02-25T17:01:34.391Z,35.60
2019-02-25T17:04:03.243Z,35.70
2019-02-25T17:06:51.310Z,35.90
2019-02-25T17:09:34.103Z,36.20
2019-02-25T17:12:09.098Z,35.80
2019-02-25T17:14:44.522Z,36.10
2019-02-25T17:17:15.115Z,36.50
2019-02-25T17:19:54.061Z,36.70
2019-02-25T17:22:26.694Z,37.10
2019-02-25T17:25:21.903Z,36.80
2019-02-25T17:28:07.639Z,36.80
2019-02-25T17:30:52.673Z,36.70
2019-02-25T17:33:30.270Z,36.70
2019-02-25T17:36:00.312Z,37.50
2019-02-25T17:38:33.163Z,37.80
2019-02-25T17:41:22.696Z,37.60
2019-02-25T17:44:06.357Z,37.90
2019-02-25T17:46:41.190Z,38.10
2019-02-25T17:49:19.002Z,37.80
2019-02-25T17:51:56.209Z,37.90
2019-02-25T17:54:29.032Z,37.70
2019-02-25T17:57:09.270Z,37.90
2019-02-25T17:59:39.639Z,38.00
2019-02-25T18:02:12.948Z,37.90
2019-02-25T18:04:44.209Z,38.60
2019-02-25T18:07:18.233Z,38.00
2019-02-25T18:10:13.746Z,38.30
2019-02-25T18:12:50.749Z,37.80
2019-02-25T18:15:40.371Z,38.40
2019-02-25T18:18:17.793Z,38.90
2019-02-25T18:20:54.802Z,39.30
2019-02-25T18:23:40.401Z,39.90
2019-02-25T18:26:18.021Z,40.50
2019-02-25T18:28:50.314Z,40.80
2019-02-25T18:31:22.199Z,40.70
2019-02-25T18:34:04.757Z,40.60
2019-02-25T18:36:36.280Z,40.60
2019-02-25T18:39:27.401Z,40.80
2019-02-25T18:42:06.547Z,41.40
2019-02-25T18:44:53.429Z,41.60
2019-02-25T18:47:41.912Z,41.90
2019-02-25T18:50:17.289Z,42.10
2019-02-25T18:52:59.571Z,42.30
2019-02-25T18:55:34.221Z,42.50
2019-02-25T18:58:09.639Z,42.50
2019-02-25T19:00:44.664Z,42.50
2019-02-25T19:03:18.614Z,42.70
2019-02-25T19:05:53.231Z,43.30
2019-02-25T19:08:26.769Z,43.60
2019-02-25T19:11:00.455Z,43.40
2019-02-25T19:13:32.041Z,43.90
2019-02-25T19:16:04.366Z,43.80
2019-02-25T19:18:47.233Z,43.60
2019-02-25T19:21:23.287Z,43.50
2019-02-25T19:23:58.030Z,43.90
2019-02-25T19:26:38.079Z,44.30
2019-02-25T19:29:19.505Z,44.80
2019-02-25T19:35:07.560Z,44.50
2019-02-25T19:37:54.460Z,44.50
2019-02-25T19:40:40.321Z,44.40
2019-02-25T19:43:37.928Z,44.70
2019-02-25T19:46:25.273Z,45.20
2019-02-25T19:49:18.879Z,46.10
2019-02-25T19:52:12.001Z,46.70
2019-02-25T19:55:00.281Z,47.00
2019-02-25T19:57:37.338Z,46.90
2019-02-25T20:00:39.169Z,47.20
2019-02-25T20:03:18.618Z,47.40
2019-02-25T20:06:18.778Z,47.70
2019-02-25T20:09:02.495Z,48.30
2019-02-25T20:11:36.613Z,48.70
2019-02-25T20:14:11.358Z,48.60
2019-02-25T20:16:44.402Z,48.20
2019-02-25T20:19:20.334Z,47.80
2019-02-25T20:22:04.674Z,48.50
2019-02-25T20:24:39.821Z,49.20
2019-02-25T20:27:18.757Z,49.60
2019-02-25T20:29:50.567Z,50.30
2019-02-25T20:32:21.658Z,50.30
2019-02-25T20:35:00.953Z,51.80
2019-02-25T20:37:33.857Z,52.40
2019-02-25T20:40:07.578Z,53.00
2019-02-25T20:42:55.923Z,53.30
2019-02-25T20:45:28.849Z,53.60
2019-02-25T20:48:16.519Z,54.60
2019-02-25T20:50:59.625Z,55.10
2019-02-25T20:53:30.101Z,56.50
2019-02-25T20:56:01.508Z,57.60
2019-02-25T20:58:46.767Z,58.60
2019-02-25T21:01:20.821Z,59.10
2019-02-25T21:03:52.652Z,60.30
2019-02-25T21:06:29.273Z,61.10
2019-02-25T21:09:02.434Z,62.70
2019-02-25T21:11:32.513Z,64.00
2019-02-25T21:14:05.181Z,63.70
2019-02-25T21:16:37.641Z,64.70
2019-02-25T21:19:10.169Z,65.80
2019-02-25T21:21:44.892Z,66.90
2019-02-25T21:24:19.228Z,68.70
2019-02-25T21:26:57.102Z,67.70
2019-02-25T21:29:31.854Z,62.40
2019-02-25T21:32:21.954Z,61.30
2019-02-25T21:34:52.801Z,60.60
2019-02-25T21:37:29.311Z,62.20
2019-02-25T21:40:00.955Z,62.10
2019-02-25T21:42:33.318Z,61.80
2019-02-25T21:45:07.891Z,63.30
2019-02-25T21:47:41.750Z,64.50
2019-02-25T21:50:18.021Z,66.20
2019-02-25T21:52:53.433Z,66.60
2019-02-25T21:55:33.155Z,66.80
2019-02-25T21:58:05.240Z,68.00
2019-02-25T22:00:38.638Z,69.10
2019-02-25T22:03:10.900Z,70.00
2019-02-25T22:05:49.445Z,71.20
2019-02-25T22:08:24.112Z,73.30
2019-02-25T22:10:54.969Z,74.40
2019-02-25T22:13:27.994Z,76.80
2019-02-25T22:15:59.125Z,78.50
2019-02-25T22:18:31.858Z,80.80
2019-02-25T22:21:07.167Z,83.50
2019-02-25T22:23:37.121Z,85.90
2019-02-25T22:26:07.899Z,88.50
2019-02-25T22:28:40.981Z,90.90
2019-02-25T22:31:18.921Z,92.80
2019-02-25T22:33:49.292Z,94.50
2019-02-25T22:36:22.180Z,95.60
2019-02-25T22:38:52.196Z,96.40
2019-02-25T22:41:25.089Z,97.20
2019-02-25T22:43:54.674Z,98.10
2019-02-25T22:46:29.964Z,98.90
2019-02-25T22:48:59.325Z,99.60
2019-02-25T22:51:33.181Z,99.90
2019-02-25T22:54:06.157Z,99.90
2019-02-25T22:56:40.194Z,99.90
2019-02-25T22:59:10.257Z,99.90
2019-02-25T23:01:40.704Z,99.90
2019-02-25T23:04:19.677Z,99.90
2019-02-25T23:06:55.689Z,99.90
2019-02-25T23:09:26.674Z,99.90
2019-02-25T23:11:57.174Z,99.90
2019-02-25T23:14:27.057Z,99.90
2019-02-25T23:17:08.865Z,99.90
2019-02-25T23:19:40.898Z,99.90
2019-02-25T23:22:10.958Z,99.90
2019-02-25T23:24:43.847Z,99.90
2019-02-25T23:27:14.716Z,99.90
2019-02-25T23:29:47.783Z,99.90
2019-02-25T23:32:18.156Z,99.90
2019-02-25T23:34:50.667Z,99.90
2019-02-25T23:37:21.576Z,99.90
2019-02-25T23:39:51.296Z,99.90
2019-02-25T23:42:23.626Z,99.90
2019-02-25T23:44:53.693Z,99.90
2019-02-25T23:47:28.937Z,99.90
2019-02-25T23:50:00.888Z,99.90
2019-02-25T23:52:37.846Z,99.90
2019-02-25T23:55:12.177Z,99.90
2019-02-25T23:57:40.839Z,99.90
